Terminal Aerodrome Forecast
Issued by NWS

Home | Current Version | Previous Version | Graphics & Text | Print | Product List | Glossary On
Versions: 1 2 3 4 5 6 7 8 9 10 11 12
284
FTUS45 KGGW 211735
TAFSDY
TAF
KSDY 211735Z 2118/2218 14018G27KT P6SM SCT180
     FM220400 15012KT P6SM BKN110 PROB30 2206/2207 6SM -SHRA OVC035
     FM220900 20007KT P6SM BKN050 PROB30 2209/2210 6SM -SHRA OVC035
     FM221500 24012KT P6SM BKN080
      AMD LTD TO CLD VIS AND WIND=

USA.gov is the U.S. government's official web portal to all federal, state and local government web resources and services.